METAR Data
IDs: Format: Raw Decoded Include TAF

Data at: 1010 UTC 18 Jan 2022

KAPA 180953Z 17004KT 10SM FEW140 BKN220 01/M09 A2983 RMK AO2 SLP086 T00111089 $
KAPA 180853Z 18004KT 10SM FEW140 BKN220 01/M08 A2983 RMK AO2 SLP081 T00111083 58013 $
KAPA 180753Z 19004KT 10SM SCT140 SCT220 01/M08 A2984 RMK AO2 SLP088 T00111083 $
KAPA 180653Z 18004KT 10SM SCT140 SCT220 02/M08 A2986 RMK AO2 SLP094 T00221083 401671028 $
KAPA 180553Z 15005KT 10SM FEW120 BKN220 02/M08 A2987 RMK AO2 SLP101 T00221078 10106 20006 58005 $
KAPA 180453Z 15005KT 10SM FEW120 BKN220 02/M07 A2988 RMK AO2 SLP110 T00171072 $
KAPA 180353Z 12004KT 10SM FEW120 BKN220 03/M08 A2989 RMK AO2 SLP122 T00331078 $
KAPA 180253Z 17005KT 10SM FEW120 BKN220 05/M09 A2989 RMK AO2 SLP125 T00501089 51002 $
KAPA 180153Z 17007KT 10SM FEW120 BKN220 08/M09 A2989 RMK AO2 SLP128 T00781094 $
KAPA 180053Z 14004KT 10SM FEW120 BKN220 09/M09 A2989 RMK AO2 SLP121 T00941094 $
KAPA 172353Z 08006KT 10SM FEW080 SCT120 BKN220 11/M09 A2988 RMK AO2 SLP114 T01061094 10167 20106 50004 $
KAPA 172253Z 04003KT 10SM FEW080 FEW120 BKN220 13/M10 A2989 RMK AO2 SLP112 T01281100 $
KAPA 172153Z 02007KT 10SM FEW080 BKN220 14/M11 A2988 RMK AO2 SLP106 T01441111 $
KAPA 172053Z 02005KT 10SM FEW080 BKN220 16/M11 A2987 RMK AO2 SLP099 T01611111 56024 $
KAPA 171953Z 04005KT 10SM FEW080 SCT130 SCT220 16/M11 A2990 RMK AO2 SLP105 T01561111 $
KAPA 171853Z 20006KT 10SM FEW100 SCT220 14/M11 A2993 RMK AO2 SLP122 T01441111 $
KAPA 171753Z 11007KT 10SM FEW100 FEW160 BKN220 13/M09 A2995 RMK AO2 SLP139 ACSL DSNT W T01281089 10133 21028 50000 $
KAPA 171653Z 14005KT 10SM FEW100 FEW160 BKN220 11/M08 A2996 RMK AO2 SLP146 ACSL DSNT W T01061083 $
KAPA 171553Z 20006KT 10SM FEW100 FEW160 BKN220 05/M09 A2996 RMK AO2 SLP159 ACSL DSNT W T00501089 $
KAPA 171453Z 23008KT 10SM FEW100 FEW160 SCT220 02/M09 A2995 RMK AO2 SLP164 ACSL DSNT W T00221094 50002 $
KAPA 171353Z 14003KT 10SM FEW100 FEW160 SCT220 M01/M10 A2995 RMK AO2 SLP170 ACSL DSNT W T10111100 $
KAPA 171253Z 19004KT 10SM FEW100 FEW160 SCT220 00/M11 A2995 RMK AO2 SLP157 T00001106 $
KAPA 171153Z 19005KT 10SM FEW100 FEW220 01/M11 A2995 RMK AO2 SLP150 T00061106 10017 21022 58014 $
KAPA 171053Z 16009KT 10SM FEW100 FEW220 M01/M10 A2996 RMK AO2 SLP153 T10061100 $
KAPA 170953Z 15006KT 10SM FEW100 M01/M09 A2998 RMK AO2 SLP153 T10061094 $
KAPA 170853Z 14007KT 10SM FEW100 FEW220 M01/M09 A3000 RMK AO2 SLP149 T10061094 56016 $
KAPA 170753Z 16007KT 10SM FEW100 FEW220 01/M09 A3001 RMK AO2 SLP154 T00061094 $
KAPA 170653Z 15009KT 10SM FEW100 FEW220 00/M10 A3003 RMK AO2 SLP166 T00001100 401391033 $
KAPA 170553Z 17011KT 10SM FEW220 M02/M09 A3005 RMK AO2 SLP180 T10171094 10044 21017 56022 $
KAPA 170453Z 16010KT 10SM FEW220 M01/M08 A3008 RMK AO2 SLP202 T10111078 $
KAPA 170353Z 17010KT 10SM SCT220 M01/M08 A3010 RMK AO2 SLP218 T10061078 $
KAPA 170253Z 16005KT 10SM SCT220 M01/M08 A3013 RMK AO2 SLP235 T10111083 50004 $
KAPA 170153Z 11005KT 10SM BKN220 00/M08 A3014 RMK AO2 SLP236 T00001078 $
KAPA 170053Z 07006KT 10SM FEW120 BKN220 03/M10 A3013 RMK AO2 SLP225 T00331100 $
KAPA 162353Z 05005KT 10SM FEW120 BKN220 04/M10 A3011 RMK AO2 SLP213 T00441100 10139 20044 53023 $
KAPA 162253Z 08011G18KT 10SM FEW110 BKN150 BKN200 07/M11 A3009 RMK AO2 SLP190 ACSL DSNT W T00721111 $